createdAt,value
2022-09-11T00:02:01.422Z,88.63
2022-09-11T00:04:33.327Z,89.82
2022-09-11T00:07:02.524Z,107.75
2022-09-11T00:09:33.075Z,99.30
2022-09-11T00:12:02.660Z,103.15
2022-09-11T00:14:31.905Z,98.40
2022-09-11T00:17:01.081Z,103.18
2022-09-11T00:19:30.370Z,103.40
2022-09-11T00:21:59.523Z,92.53
2022-09-11T00:24:28.739Z,95.85
2022-09-11T00:26:59.390Z,98.07
2022-09-11T00:29:29.982Z,95.28
2022-09-11T00:31:59.133Z,91.28
2022-09-11T00:34:28.542Z,108.55
2022-09-11T00:36:58.201Z,90.38
2022-09-11T00:39:27.564Z,89.05
2022-09-11T00:41:58.599Z,80.95
2022-09-11T00:45:03.832Z,92.25
2022-09-11T00:47:33.659Z,90.70
2022-09-11T00:50:13.523Z,88.80
2022-09-11T00:52:53.177Z,82.55
2022-09-11T00:55:27.390Z,73.57
2022-09-11T00:58:03.029Z,93.57
2022-09-11T01:00:32.660Z,86.07
2022-09-11T01:03:03.267Z,89.65
2022-09-11T01:05:34.949Z,81.03
2022-09-11T01:08:04.696Z,88.53
2022-09-11T01:10:47.975Z,88.85
2022-09-11T01:13:29.138Z,75.57
2022-09-11T01:16:10.706Z,81.78
2022-09-11T01:18:47.111Z,76.53
2022-09-11T01:21:53.486Z,81.72
2022-09-11T01:24:56.500Z,73.05
2022-09-11T01:30:18.800Z,36.67
2022-09-11T01:33:23.190Z,55.00
2022-09-11T01:36:01.435Z,60.20
2022-09-11T01:38:41.856Z,62.72
2022-09-11T01:44:00.641Z,38.40
2022-09-11T01:46:36.311Z,51.38
2022-09-11T01:49:16.957Z,69.53
2022-09-11T01:51:59.283Z,62.08
2022-09-11T01:54:42.795Z,53.88
2022-09-11T01:57:38.268Z,58.65
2022-09-11T02:00:14.606Z,73.38
2022-09-11T02:03:01.939Z,61.47
2022-09-11T03:34:18.030Z,23.00
2022-09-11T03:36:49.160Z,28.85
2022-09-11T03:39:18.385Z,39.05
2022-09-11T03:41:47.912Z,49.33
2022-09-11T03:44:17.832Z,51.03
2022-09-11T03:46:47.399Z,60.88
2022-09-11T03:49:18.196Z,65.13
2022-09-11T03:51:48.117Z,60.53
2022-09-11T03:54:17.838Z,52.47
2022-09-11T03:56:48.678Z,47.95
2022-09-11T03:59:20.125Z,57.78
2022-09-11T04:01:51.023Z,62.60
2022-09-11T04:04:23.182Z,57.55
2022-09-11T04:06:53.067Z,59.85
2022-09-11T04:09:22.242Z,54.50
2022-09-11T04:11:54.254Z,65.20
2022-09-11T04:14:28.848Z,61.88
2022-09-11T04:17:00.747Z,61.67
2022-09-11T04:19:32.502Z,57.80
2022-09-11T04:22:02.098Z,54.15
2022-09-11T04:24:31.742Z,57.53
2022-09-11T04:27:01.784Z,63.70
2022-09-11T04:29:32.620Z,45.22
2022-09-11T04:32:03.536Z,56.75
2022-09-11T04:34:38.266Z,57.25
2022-09-11T04:37:08.354Z,43.40
2022-09-11T04:39:41.360Z,62.80
2022-09-11T04:42:11.054Z,56.83
2022-09-11T04:44:42.173Z,57.78
2022-09-11T04:47:11.374Z,60.80
2022-09-11T04:49:43.244Z,56.67
2022-09-11T04:52:12.973Z,59.58
2022-09-11T04:54:42.346Z,61.83
2022-09-11T04:57:14.108Z,54.30
2022-09-11T04:59:43.285Z,60.67
2022-09-11T05:02:15.221Z,43.80
2022-09-11T05:04:49.510Z,50.08
2022-09-11T05:07:19.539Z,55.58
2022-09-11T05:09:54.526Z,65.60
2022-09-11T05:12:24.346Z,69.55
2022-09-11T05:14:53.549Z,80.32
2022-09-11T05:17:22.862Z,67.05
2022-09-11T05:19:53.520Z,64.47
2022-09-11T05:22:25.115Z,75.15
2022-09-11T05:24:58.685Z,86.65
2022-09-11T05:27:28.363Z,82.25
2022-09-11T05:29:58.241Z,70.65
2022-09-11T05:32:27.553Z,58.65
2022-09-11T05:34:59.617Z,75.53
2022-09-11T05:37:29.082Z,73.82
2022-09-11T05:39:58.898Z,83.35
2022-09-11T05:42:28.728Z,87.18
2022-09-11T05:44:58.423Z,91.78
2022-09-11T05:47:29.408Z,73.47
2022-09-11T05:50:00.288Z,81.03
2022-09-11T05:52:30.639Z,76.20
2022-09-11T05:54:59.899Z,75.43
2022-09-11T05:57:29.099Z,107.00
2022-09-11T05:59:58.912Z,115.10
2022-09-11T06:02:28.553Z,161.20
2022-09-11T06:04:59.625Z,79.95
2022-09-11T06:07:28.841Z,97.13
2022-09-11T06:10:02.993Z,82.75
2022-09-11T06:12:35.140Z,99.45
2022-09-11T06:15:04.650Z,107.28
2022-09-11T06:17:33.855Z,201.05
2022-09-11T06:20:05.169Z,104.68
2022-09-11T06:22:37.789Z,110.95
2022-09-11T06:27:37.223Z,68.75
2022-09-11T06:30:09.066Z,126.57
2022-09-11T06:35:11.759Z,101.38
2022-09-11T06:37:41.346Z,116.53
2022-09-11T06:40:13.549Z,88.38
2022-09-11T06:42:43.003Z,108.10
2022-09-11T06:45:12.922Z,103.65
2022-09-11T06:47:43.313Z,285.45
2022-09-11T06:50:14.807Z,156.30
2022-09-11T06:53:02.415Z,105.68
2022-09-11T06:55:32.881Z,99.13
2022-09-11T06:58:08.883Z,112.00
2022-09-11T07:00:38.691Z,101.63
2022-09-11T07:03:08.117Z,125.95
2022-09-11T07:05:40.165Z,114.10
2022-09-11T07:08:09.477Z,131.65
2022-09-11T07:10:39.308Z,110.45
2022-09-11T07:13:09.061Z,108.65
2022-09-11T07:15:38.775Z,101.65
2022-09-11T07:18:08.585Z,114.43
2022-09-11T07:20:42.563Z,112.15
2022-09-11T07:23:13.002Z,108.78
2022-09-11T07:25:43.494Z,118.65
2022-09-11T07:28:12.630Z,127.95
2022-09-11T07:30:42.410Z,138.85
2022-09-11T07:33:11.883Z,135.35
2022-09-11T07:35:42.617Z,198.32
2022-09-11T07:38:11.911Z,115.65
2022-09-11T07:40:44.212Z,107.13
2022-09-11T07:43:13.950Z,117.40
2022-09-11T07:45:43.905Z,136.43
2022-09-11T07:48:13.605Z,116.43
2022-09-11T07:50:44.226Z,116.28
2022-09-11T07:53:13.658Z,120.10
2022-09-11T07:55:43.713Z,112.68
2022-09-11T07:58:13.640Z,143.25
2022-09-11T08:00:43.287Z,119.97
2022-09-11T08:03:20.044Z,116.05
2022-09-11T08:05:50.904Z,176.65
2022-09-11T08:08:21.244Z,128.90
2022-09-11T08:10:51.052Z,144.73
2022-09-11T08:13:21.897Z,123.97
2022-09-11T08:15:52.264Z,135.32
2022-09-11T08:18:22.737Z,144.98
2022-09-11T08:20:54.662Z,132.38
2022-09-11T08:23:24.049Z,146.73
2022-09-11T08:25:53.926Z,163.18
2022-09-11T08:28:25.180Z,140.18
2022-09-11T08:31:02.055Z,133.48
2022-09-11T08:33:33.420Z,154.50
2022-09-11T08:36:12.200Z,132.15
2022-09-11T08:38:44.996Z,188.90
2022-09-11T08:41:41.220Z,215.52
2022-09-11T08:44:22.208Z,144.25
2022-09-11T08:46:58.544Z,129.70
2022-09-11T08:49:30.773Z,139.63
2022-09-11T08:52:07.209Z,129.07
2022-09-11T08:54:40.307Z,141.45
2022-09-11T08:57:20.765Z,164.45
2022-09-11T09:00:15.223Z,115.03
2022-09-11T09:03:19.238Z,124.18
2022-09-11T09:05:57.969Z,112.65
2022-09-11T09:08:44.941Z,110.57
2022-09-11T09:11:30.495Z,112.47
2022-09-11T09:14:18.535Z,117.82
2022-09-11T09:16:54.572Z,115.32
2022-09-11T09:19:31.754Z,110.28
2022-09-11T09:22:13.579Z,114.90
2022-09-11T09:24:51.040Z,113.95
2022-09-11T09:27:28.377Z,119.32
2022-09-11T09:30:03.377Z,121.85
2022-09-11T09:32:40.670Z,117.57
2022-09-11T09:35:18.080Z,118.20
2022-09-11T09:37:48.765Z,122.75
2022-09-11T09:40:20.423Z,119.28
2022-09-11T09:43:30.190Z,137.07
2022-09-11T09:46:16.909Z,118.53
2022-09-11T09:48:46.184Z,135.25
2022-09-11T09:51:16.317Z,124.22
2022-09-11T09:53:50.130Z,127.85
2022-09-11T09:56:23.789Z,156.52
2022-09-11T09:59:02.871Z,117.97
2022-09-11T10:01:48.478Z,141.38
2022-09-11T10:04:22.344Z,113.47
2022-09-11T10:06:53.983Z,116.35
2022-09-11T10:09:29.784Z,129.27
2022-09-11T10:12:03.668Z,123.53
2022-09-11T10:14:54.189Z,118.30
2022-09-11T10:17:32.298Z,143.80
2022-09-11T10:20:27.002Z,134.13
2022-09-11T10:22:57.306Z,178.52
2022-09-11T10:25:30.091Z,115.70
2022-09-11T10:30:39.177Z,95.88
2022-09-11T10:33:19.944Z,141.38
2022-09-11T10:35:55.240Z,113.65
2022-09-11T10:38:30.903Z,180.00
2022-09-11T10:41:09.557Z,121.93
2022-09-11T10:43:56.067Z,249.52
2022-09-11T10:46:38.768Z,135.27
2022-09-11T10:49:25.907Z,148.43
2022-09-11T10:52:06.296Z,192.38
2022-09-11T10:54:53.386Z,154.57
2022-09-11T10:57:29.150Z,147.70
2022-09-11T11:00:09.898Z,149.35
2022-09-11T11:02:42.172Z,185.00
2022-09-11T11:05:26.254Z,151.25
2022-09-11T11:08:28.002Z,211.70
2022-09-11T11:11:15.299Z,117.15
2022-09-11T11:14:17.229Z,446.95
2022-09-11T11:16:59.708Z,372.52
2022-09-11T11:19:52.956Z,488.52
2022-09-11T11:22:37.246Z,377.20
2022-09-11T11:25:23.078Z,244.93
2022-09-11T11:28:13.518Z,403.15
2022-09-11T11:30:53.295Z,244.07
2022-09-11T11:33:47.131Z,311.00
2022-09-11T11:36:28.542Z,310.67
2022-09-11T11:39:03.421Z,265.48
2022-09-11T11:41:39.515Z,520.20
2022-09-11T11:44:15.903Z,235.43
2022-09-11T11:46:50.000Z,303.30
2022-09-11T11:49:28.407Z,346.98
2022-09-11T11:52:06.518Z,317.45
2022-09-11T11:54:46.653Z,422.50
2022-09-11T11:57:22.376Z,388.02
2022-09-11T12:00:00.249Z,111.20
2022-09-11T12:02:38.618Z,167.95
2022-09-11T12:05:14.445Z,549.10
2022-09-11T12:07:43.812Z,192.02
2022-09-11T12:10:31.084Z,255.02
2022-09-11T12:13:03.696Z,325.25
2022-09-11T12:15:35.857Z,165.80
2022-09-11T12:18:21.036Z,370.10
2022-09-11T12:20:51.723Z,105.25
2022-09-11T12:23:56.364Z,97.00
2022-09-11T12:26:27.749Z,203.30
2022-09-11T12:29:51.865Z,102.00
2022-09-11T12:32:42.130Z,80.40
2022-09-11T12:35:34.964Z,252.05
2022-09-11T12:38:22.091Z,167.38
2022-09-11T12:40:56.519Z,241.20
2022-09-11T12:43:46.770Z,160.18
2022-09-11T12:47:12.132Z,186.43
2022-09-11T12:49:43.947Z,141.25
2022-09-11T12:52:29.233Z,99.83
2022-09-11T12:55:05.762Z,131.43
2022-09-11T12:57:38.890Z,206.35
2022-09-11T13:00:22.932Z,223.23
2022-09-11T13:02:57.843Z,103.05
2022-09-11T13:05:34.693Z,135.90
2022-09-11T13:08:08.234Z,229.85
2022-09-11T13:10:40.534Z,336.58
2022-09-11T13:13:44.628Z,190.77
2022-09-11T13:16:24.356Z,279.95
2022-09-11T13:19:09.430Z,216.05
2022-09-11T13:21:40.861Z,102.72
2022-09-11T13:24:25.581Z,130.85
2022-09-11T13:26:59.867Z,181.43
2022-09-11T13:29:32.698Z,165.52
2022-09-11T13:32:11.495Z,161.88
2022-09-11T13:34:45.276Z,228.00
2022-09-11T13:37:20.917Z,134.45
2022-09-11T13:39:50.262Z,116.05
2022-09-11T13:42:25.818Z,162.70
2022-09-11T13:44:58.156Z,127.93
2022-09-11T13:47:31.542Z,119.78
2022-09-11T13:50:03.565Z,131.98
2022-09-11T13:52:35.695Z,121.32
2022-09-11T13:55:12.630Z,116.03
2022-09-11T13:57:56.574Z,161.82
2022-09-11T14:00:44.951Z,132.85
2022-09-11T14:03:22.829Z,125.82
2022-09-11T14:05:55.229Z,165.15
2022-09-11T14:08:32.569Z,126.88
2022-09-11T14:11:10.990Z,131.73
2022-09-11T14:13:50.590Z,181.90
2022-09-11T14:16:27.170Z,167.60
2022-09-11T14:19:00.863Z,143.50
2022-09-11T14:21:35.871Z,147.40
2022-09-11T14:24:23.359Z,156.05
2022-09-11T14:26:52.707Z,174.23
2022-09-11T14:29:29.201Z,177.88
2022-09-11T14:32:35.103Z,173.88
2022-09-11T14:35:06.641Z,168.82
2022-09-11T14:37:43.735Z,154.48
2022-09-11T14:40:17.953Z,155.68
2022-09-11T14:42:48.102Z,192.23
2022-09-11T14:45:23.980Z,149.43
2022-09-11T14:47:53.537Z,201.60
2022-09-11T14:50:24.753Z,179.93
2022-09-11T14:52:54.090Z,175.80
2022-09-11T14:55:23.371Z,142.00
2022-09-11T14:57:52.605Z,221.02
2022-09-11T15:00:23.479Z,165.18
2022-09-11T15:02:52.894Z,156.95
2022-09-11T15:05:24.725Z,227.52
2022-09-11T15:07:54.064Z,177.23
2022-09-11T15:10:23.859Z,177.88
2022-09-11T15:12:53.021Z,209.52
2022-09-11T15:15:29.283Z,199.60
2022-09-11T15:17:58.521Z,200.90
2022-09-11T15:20:27.883Z,162.95
2022-09-11T15:22:57.894Z,184.55
2022-09-11T15:25:27.106Z,206.48
2022-09-11T15:27:56.301Z,187.48
2022-09-11T15:30:25.874Z,230.75
2022-09-11T15:32:56.844Z,197.57
2022-09-11T15:35:28.499Z,182.77
2022-09-11T15:38:05.850Z,167.95
2022-09-11T15:40:36.978Z,192.50
2022-09-11T15:43:06.240Z,224.73
2022-09-11T15:45:35.588Z,161.55
2022-09-11T15:48:06.299Z,215.07
2022-09-11T15:50:35.690Z,187.60
2022-09-11T15:53:05.047Z,169.90
2022-09-11T15:55:35.615Z,192.32
2022-09-11T15:58:04.901Z,181.15
2022-09-11T16:00:36.853Z,159.88
2022-09-11T16:03:07.924Z,244.52
2022-09-11T16:05:43.110Z,185.23
2022-09-11T16:08:13.128Z,206.55
2022-09-11T16:10:42.735Z,155.18
2022-09-11T16:13:12.031Z,214.02
2022-09-11T16:15:41.284Z,151.60
2022-09-11T16:18:12.183Z,187.65
2022-09-11T16:20:43.647Z,226.55
2022-09-11T16:23:13.225Z,197.70
2022-09-11T16:25:44.077Z,163.65
2022-09-11T16:28:13.364Z,204.13
2022-09-11T16:30:45.846Z,222.73
2022-09-11T16:33:18.273Z,198.32
2022-09-11T16:35:59.767Z,173.27
2022-09-11T16:38:30.290Z,207.13
2022-09-11T16:41:03.576Z,172.25
2022-09-11T16:43:32.786Z,174.18
2022-09-11T16:46:02.510Z,195.55
2022-09-11T16:48:34.021Z,185.30
2022-09-11T16:51:03.225Z,185.55
2022-09-11T16:53:35.397Z,161.23
2022-09-11T16:56:08.349Z,198.73
2022-09-11T16:58:42.315Z,157.25
2022-09-11T17:01:16.988Z,190.70
2022-09-11T17:03:51.186Z,166.13
2022-09-11T17:06:22.554Z,189.98
2022-09-11T17:08:55.033Z,186.05
2022-09-11T17:11:24.610Z,201.30
2022-09-11T17:13:56.885Z,184.10
2022-09-11T17:16:31.463Z,162.85
2022-09-11T17:19:03.059Z,192.63
2022-09-11T17:21:37.074Z,197.52
2022-09-11T17:24:07.980Z,198.40
2022-09-11T17:26:37.563Z,200.88
2022-09-11T17:29:08.351Z,199.15
2022-09-11T17:31:37.604Z,216.15
2022-09-11T17:34:17.172Z,178.38
2022-09-11T17:36:46.558Z,175.98
2022-09-11T17:39:16.087Z,210.75
2022-09-11T17:41:48.002Z,182.63
2022-09-11T17:44:17.475Z,225.05
2022-09-11T17:46:49.220Z,206.55
2022-09-11T17:49:22.267Z,182.90
2022-09-11T17:51:51.844Z,144.63
2022-09-11T17:54:22.205Z,196.63
2022-09-11T17:56:51.983Z,185.90
2022-09-11T17:59:21.334Z,181.70
2022-09-11T18:01:51.232Z,192.68
2022-09-11T18:04:22.568Z,157.10
2022-09-11T18:06:53.024Z,168.73
2022-09-11T18:09:22.516Z,223.57
2022-09-11T18:11:54.025Z,196.80
2022-09-11T18:14:27.571Z,213.23
2022-09-11T18:16:57.702Z,184.23
2022-09-11T18:19:28.426Z,192.10
2022-09-11T18:22:01.743Z,188.40
2022-09-11T18:24:31.411Z,179.75
2022-09-11T18:27:01.316Z,188.65
2022-09-11T18:29:30.853Z,179.38
2022-09-11T18:32:00.546Z,224.38
2022-09-11T18:34:32.366Z,189.98
2022-09-11T18:37:02.842Z,166.57
2022-09-11T18:39:32.228Z,179.05
2022-09-11T18:42:01.977Z,184.80
2022-09-11T18:44:31.291Z,177.63
2022-09-11T18:47:00.562Z,207.70
2022-09-11T18:49:31.111Z,199.25
2022-09-11T18:52:00.666Z,188.07
2022-09-11T18:54:30.430Z,158.82
2022-09-11T18:57:00.247Z,160.05
2022-09-11T18:59:29.727Z,204.20
2022-09-11T19:02:00.251Z,192.93
2022-09-11T19:04:31.485Z,212.55
2022-09-11T19:07:00.743Z,152.57
2022-09-11T19:09:29.968Z,187.55
2022-09-11T19:12:00.291Z,176.35
2022-09-11T19:14:30.661Z,160.93
2022-09-11T19:17:00.466Z,190.00
2022-09-11T19:19:31.158Z,168.35
2022-09-11T19:22:00.855Z,187.43
2022-09-11T19:24:30.772Z,183.57
2022-09-11T19:27:00.410Z,207.32
2022-09-11T19:29:29.924Z,189.98
2022-09-11T19:32:00.504Z,188.88
2022-09-11T19:34:34.053Z,207.18
2022-09-11T19:37:05.902Z,230.50
2022-09-11T19:39:35.261Z,187.70
2022-09-11T19:42:05.072Z,180.30
2022-09-11T19:44:34.543Z,151.27
2022-09-11T19:47:04.584Z,207.27
2022-09-11T19:49:35.194Z,143.85
2022-09-11T19:52:04.987Z,176.00
2022-09-11T19:54:35.510Z,194.57
2022-09-11T19:57:05.367Z,195.82
2022-09-11T19:59:34.890Z,188.40
2022-09-11T20:02:04.204Z,197.15
2022-09-11T20:04:34.989Z,175.60
2022-09-11T20:07:04.329Z,187.77
2022-09-11T20:09:34.072Z,185.77
2022-09-11T20:12:04.050Z,185.77
2022-09-11T20:14:33.222Z,183.38
2022-09-11T20:17:05.016Z,220.77
2022-09-11T20:19:35.751Z,224.63
2022-09-11T20:22:05.234Z,163.52
2022-09-11T20:24:34.661Z,202.80
2022-09-11T20:27:03.879Z,181.18
2022-09-11T20:29:33.124Z,169.13
2022-09-11T20:32:02.902Z,191.43
2022-09-11T20:34:32.436Z,185.88
2022-09-11T20:37:06.900Z,217.63
2022-09-11T20:39:44.303Z,182.35
2022-09-11T20:42:14.181Z,237.52
2022-09-11T20:44:45.531Z,158.15
2022-09-11T20:47:14.776Z,207.50
2022-09-11T20:49:46.454Z,200.75
2022-09-11T20:52:17.687Z,157.90
2022-09-11T20:54:48.610Z,186.23
2022-09-11T20:57:18.015Z,189.80
2022-09-11T20:59:47.309Z,169.13
2022-09-11T21:02:17.738Z,190.30
2022-09-11T21:04:49.050Z,172.82
2022-09-11T21:07:19.657Z,183.80
2022-09-11T21:09:49.041Z,166.93
2022-09-11T21:12:18.546Z,201.32
2022-09-11T21:14:47.763Z,210.90
2022-09-11T21:17:16.978Z,178.07
2022-09-11T21:19:46.245Z,178.35
2022-09-11T21:22:15.621Z,180.90
2022-09-11T21:24:46.507Z,212.75
2022-09-11T21:27:15.735Z,187.75
2022-09-11T21:29:44.984Z,212.25
2022-09-11T21:32:14.263Z,175.68
2022-09-11T21:34:43.538Z,167.30
2022-09-11T21:37:13.450Z,192.75
2022-09-11T21:39:42.835Z,189.43
2022-09-11T21:42:13.531Z,195.98
2022-09-11T21:44:42.746Z,175.07
2022-09-11T21:47:12.013Z,180.85
2022-09-11T21:49:41.234Z,188.85
2022-09-11T21:52:10.436Z,166.10
2022-09-11T21:54:39.845Z,165.48
2022-09-11T21:57:09.111Z,178.25
2022-09-11T21:59:39.952Z,181.10
2022-09-11T22:02:09.220Z,210.27
2022-09-11T22:04:38.683Z,163.75
2022-09-11T22:07:07.959Z,157.18
2022-09-11T22:09:37.272Z,198.95
2022-09-11T22:12:06.936Z,191.07
2022-09-11T22:14:36.416Z,162.02
2022-09-11T22:17:07.176Z,185.75
2022-09-11T22:19:36.381Z,163.77
2022-09-11T22:22:06.773Z,160.55
2022-09-11T22:24:35.967Z,166.80
2022-09-11T22:27:05.496Z,167.75
2022-09-11T22:29:34.713Z,178.43
2022-09-11T22:32:04.416Z,180.70
2022-09-11T22:34:38.263Z,171.27
2022-09-11T22:37:07.642Z,179.48
2022-09-11T22:39:36.956Z,181.55
2022-09-11T22:42:06.579Z,176.13
2022-09-11T22:44:35.900Z,161.27
2022-09-11T22:47:05.738Z,174.82
2022-09-11T22:49:36.270Z,170.82
2022-09-11T22:52:05.631Z,186.38
2022-09-11T22:54:34.892Z,166.13
2022-09-11T22:57:04.215Z,181.02
2022-09-11T22:59:33.430Z,180.50
2022-09-11T23:02:03.213Z,156.50
2022-09-11T23:04:32.480Z,213.30
2022-09-11T23:07:17.149Z,189.80
2022-09-11T23:09:46.474Z,187.82
2022-09-11T23:12:15.659Z,164.40
2022-09-11T23:14:45.743Z,159.20
2022-09-11T23:17:15.166Z,194.95
2022-09-11T23:19:44.378Z,160.60
2022-09-11T23:22:14.873Z,189.10
2022-09-11T23:24:44.116Z,160.07
2022-09-11T23:27:13.374Z,169.95
2022-09-11T23:29:42.515Z,154.07
2022-09-11T23:32:11.771Z,199.43
2022-09-11T23:34:40.992Z,161.10
2022-09-11T23:37:10.183Z,145.02
2022-09-11T23:39:41.091Z,188.63
2022-09-11T23:42:10.406Z,148.48
2022-09-11T23:44:39.621Z,178.60
2022-09-11T23:47:09.048Z,193.02
2022-09-11T23:49:38.317Z,157.98
2022-09-11T23:52:07.611Z,185.15
2022-09-11T23:54:36.922Z,181.68
2022-09-11T23:57:08.102Z,157.30
2022-09-11T23:59:37.381Z,172.48
